Terminal Aerodrome Forecast
Issued by NWS Newport/Morehead City, NC

Home | Current Version | Previous Version | Text Only | Print | Product List | Glossary Off
Versions: 1 2 3 4 5 6 7 8 9 10 11 12 13 14 15 16 17 18

000
FTUS42 KMHX 270311 AAA
TAFEWN
TAF AMD
KEWN 270311Z 2703/2724 00000KT 3SM BR SCT020
     FM270500 00000KT 3SM BR BKN015
     FM271400 05008KT P6SM SCT025 BKN040
     FM271700 05008KT P6SM VCTS BKN040CB=

USA.gov is the U.S. government's official web portal to all federal, state and local government web resources and services.